createdAt,value
2023-09-27T00:02:12.780Z,3.85
2023-09-27T00:04:39.431Z,3.83
2023-09-27T00:07:06.019Z,2.97
2023-09-27T00:09:32.862Z,2.05
2023-09-27T00:11:59.710Z,3.13
2023-09-27T00:14:27.748Z,2.55
2023-09-27T00:16:55.531Z,3.30
2023-09-27T00:19:22.140Z,3.72
2023-09-27T00:21:48.598Z,3.00
2023-09-27T00:24:15.284Z,2.25
2023-09-27T00:26:41.751Z,3.15
2023-09-27T00:29:08.471Z,2.17
2023-09-27T00:31:35.064Z,2.25
2023-09-27T00:34:01.554Z,2.28
2023-09-27T00:36:28.132Z,1.48
2023-09-27T00:38:54.754Z,2.13
2023-09-27T00:41:21.581Z,1.88
2023-09-27T00:43:48.101Z,1.65
2023-09-27T00:46:17.417Z,0.90
2023-09-27T00:48:44.423Z,1.42
2023-09-27T00:51:11.052Z,1.83
2023-09-27T00:53:38.860Z,1.80
2023-09-27T00:56:07.294Z,2.30
2023-09-27T00:58:35.622Z,1.00
2023-09-27T01:01:02.133Z,2.45
2023-09-27T01:03:28.662Z,2.47
2023-09-27T01:05:55.583Z,1.60
2023-09-27T01:08:22.463Z,1.85
2023-09-27T01:10:49.220Z,1.90
2023-09-27T01:13:15.913Z,2.10
2023-09-27T01:15:42.472Z,1.80
2023-09-27T01:18:08.990Z,2.45
2023-09-27T01:20:35.545Z,3.45
2023-09-27T01:23:04.009Z,3.55
2023-09-27T01:25:33.264Z,2.05
2023-09-27T01:28:05.261Z,1.98
2023-09-27T01:30:35.087Z,2.05
2023-09-27T01:33:07.411Z,2.13
2023-09-27T01:35:42.538Z,1.48
2023-09-27T01:38:10.122Z,2.20
2023-09-27T01:40:39.746Z,1.95
2023-09-27T01:43:06.269Z,2.70
2023-09-27T01:45:33.241Z,1.95
2023-09-27T01:48:01.161Z,1.92
2023-09-27T01:50:28.744Z,2.38
2023-09-27T01:52:57.742Z,2.22
2023-09-27T01:55:25.248Z,2.20
2023-09-27T01:57:52.961Z,2.95
2023-09-27T02:00:20.399Z,2.35
2023-09-27T02:02:59.193Z,2.38
2023-09-27T02:05:27.461Z,2.00
2023-09-27T02:07:54.364Z,1.85
2023-09-27T02:10:21.772Z,2.33
2023-09-27T02:12:48.440Z,2.58
2023-09-27T02:15:16.209Z,2.88
2023-09-27T02:17:43.946Z,2.55
2023-09-27T02:20:12.531Z,2.30
2023-09-27T02:22:41.274Z,1.92
2023-09-27T02:25:12.644Z,1.25
2023-09-27T02:27:39.920Z,2.60
2023-09-27T02:30:08.702Z,2.58
2023-09-27T02:32:35.450Z,1.83
2023-09-27T02:35:02.321Z,2.78
2023-09-27T02:37:28.827Z,3.03
2023-09-27T02:39:55.342Z,2.28
2023-09-27T02:42:21.796Z,2.17
2023-09-27T02:44:48.753Z,2.83
2023-09-27T02:47:15.365Z,3.05
2023-09-27T02:49:41.895Z,3.15
2023-09-27T02:52:08.375Z,2.38
2023-09-27T02:54:34.829Z,2.50
2023-09-27T02:57:01.289Z,2.78
2023-09-27T02:59:30.543Z,3.35
2023-09-27T03:01:57.098Z,2.28
2023-09-27T03:04:23.553Z,2.55
2023-09-27T03:06:50.229Z,2.30
2023-09-27T03:09:17.761Z,2.97
2023-09-27T03:11:44.342Z,3.20
2023-09-27T03:14:10.941Z,2.90
2023-09-27T03:16:38.641Z,2.22
2023-09-27T03:19:05.597Z,2.45
2023-09-27T03:21:32.180Z,3.00
2023-09-27T03:23:58.673Z,2.33
2023-09-27T03:26:25.264Z,2.00
2023-09-27T03:28:53.197Z,4.00
2023-09-27T03:31:20.717Z,2.17
2023-09-27T03:33:50.171Z,2.78
2023-09-27T03:36:16.663Z,3.10
2023-09-27T03:38:43.360Z,3.30
2023-09-27T03:41:11.132Z,2.22
2023-09-27T03:43:37.723Z,3.10
2023-09-27T03:46:07.198Z,2.15
2023-09-27T03:48:34.566Z,2.97
2023-09-27T03:51:01.525Z,3.03
2023-09-27T03:53:30.005Z,3.22
2023-09-27T03:55:56.585Z,2.08
2023-09-27T03:58:23.223Z,2.58
2023-09-27T04:00:49.786Z,2.08
2023-09-27T04:03:17.713Z,2.50
2023-09-27T04:05:44.366Z,2.85
2023-09-27T04:08:12.514Z,3.20
2023-09-27T04:10:39.448Z,2.40
2023-09-27T04:13:06.777Z,2.47
2023-09-27T04:15:36.463Z,2.17
2023-09-27T04:18:03.628Z,2.83
2023-09-27T04:20:30.503Z,2.33
2023-09-27T04:22:57.917Z,3.83
2023-09-27T04:25:24.587Z,2.50
2023-09-27T04:27:51.998Z,1.73
2023-09-27T04:30:23.377Z,2.20
2023-09-27T04:32:55.000Z,3.17
2023-09-27T04:35:22.403Z,1.50
2023-09-27T04:37:49.752Z,2.63
2023-09-27T04:40:16.662Z,2.40
2023-09-27T04:42:44.115Z,2.63
2023-09-27T04:45:14.479Z,1.80
2023-09-27T04:47:42.146Z,2.17
2023-09-27T04:50:12.244Z,1.92
2023-09-27T04:52:40.219Z,2.73
2023-09-27T04:55:08.481Z,2.17
2023-09-27T04:57:35.100Z,3.40
2023-09-27T05:00:01.905Z,2.30
2023-09-27T05:02:28.742Z,3.42
2023-09-27T05:04:55.273Z,1.90
2023-09-27T05:07:21.795Z,2.17
2023-09-27T05:09:48.870Z,4.18
2023-09-27T05:12:15.816Z,3.88
2023-09-27T05:14:42.762Z,3.08
2023-09-27T05:17:10.393Z,3.55
2023-09-27T05:19:36.942Z,2.78
2023-09-27T05:22:03.753Z,3.75
2023-09-27T05:24:30.302Z,4.00
2023-09-27T05:27:00.508Z,4.35
2023-09-27T05:29:28.214Z,3.22
2023-09-27T05:31:54.743Z,3.30
2023-09-27T05:34:21.231Z,3.10
2023-09-27T05:36:47.696Z,3.38
2023-09-27T05:39:14.138Z,4.95
2023-09-27T05:41:40.614Z,3.22
2023-09-27T05:44:07.143Z,3.60
2023-09-27T05:46:34.657Z,3.15
2023-09-27T05:49:06.213Z,3.20
2023-09-27T05:51:32.763Z,3.05
2023-09-27T05:53:59.704Z,4.47
2023-09-27T05:56:26.744Z,3.80
2023-09-27T05:58:53.733Z,2.70
2023-09-27T06:01:20.983Z,2.90
2023-09-27T06:03:48.185Z,3.10
2023-09-27T06:06:15.118Z,4.22
2023-09-27T06:08:42.377Z,2.67
2023-09-27T06:11:10.500Z,3.20
2023-09-27T06:13:39.962Z,3.35
2023-09-27T06:16:18.101Z,3.05
2023-09-27T06:18:44.733Z,2.75
2023-09-27T06:21:11.231Z,3.42
2023-09-27T06:23:37.826Z,3.47
2023-09-27T06:26:04.327Z,3.05
2023-09-27T06:28:30.860Z,3.72
2023-09-27T06:30:57.397Z,4.22
2023-09-27T06:33:23.967Z,2.83
2023-09-27T06:35:50.448Z,3.47
2023-09-27T06:38:20.741Z,3.42
2023-09-27T06:40:47.257Z,4.57
2023-09-27T06:43:15.269Z,3.00
2023-09-27T06:45:41.805Z,2.20
2023-09-27T06:48:08.547Z,2.95
2023-09-27T06:50:35.300Z,3.60
2023-09-27T06:53:19.828Z,3.25
2023-09-27T06:55:50.390Z,3.42
2023-09-27T06:58:24.117Z,2.53
2023-09-27T07:00:52.506Z,3.20
2023-09-27T07:03:20.732Z,2.45
2023-09-27T07:05:47.821Z,4.38
2023-09-27T07:08:14.723Z,3.33
2023-09-27T07:10:41.806Z,2.95
2023-09-27T07:13:08.471Z,3.70
2023-09-27T07:15:35.019Z,3.92
2023-09-27T07:18:01.747Z,4.50
2023-09-27T07:20:29.972Z,3.75
2023-09-27T07:22:57.516Z,4.50
2023-09-27T07:25:24.575Z,5.20
2023-09-27T07:27:52.726Z,4.78
2023-09-27T07:30:22.032Z,4.95
2023-09-27T07:32:49.032Z,4.57
2023-09-27T07:35:17.919Z,5.25
2023-09-27T07:37:45.269Z,4.70
2023-09-27T07:40:13.775Z,4.28
2023-09-27T07:42:45.426Z,5.03
2023-09-27T07:45:16.649Z,4.57
2023-09-27T07:47:43.798Z,4.88
2023-09-27T07:50:11.317Z,3.67
2023-09-27T07:52:38.298Z,4.97
2023-09-27T07:55:05.785Z,5.13
2023-09-27T07:57:32.307Z,3.30
2023-09-27T07:59:59.389Z,4.47
2023-09-27T08:02:27.285Z,4.40
2023-09-27T08:04:53.944Z,3.55
2023-09-27T08:07:20.421Z,4.60
2023-09-27T08:09:46.879Z,3.60
2023-09-27T08:12:14.278Z,3.85
2023-09-27T08:14:40.782Z,3.47
2023-09-27T08:17:08.249Z,4.65
2023-09-27T08:19:34.855Z,3.42
2023-09-27T08:22:01.350Z,3.20
2023-09-27T08:24:27.799Z,5.63
2023-09-27T08:26:54.345Z,3.65
2023-09-27T08:29:22.703Z,2.63
2023-09-27T08:31:49.262Z,2.95
2023-09-27T08:34:15.718Z,3.30
2023-09-27T08:36:42.182Z,2.92
2023-09-27T08:39:10.648Z,3.15
2023-09-27T08:41:39.166Z,2.30
2023-09-27T08:44:07.367Z,2.92
2023-09-27T08:46:35.919Z,3.42
2023-09-27T08:49:03.779Z,2.35
2023-09-27T08:51:31.149Z,2.53
2023-09-27T08:53:57.915Z,3.55
2023-09-27T08:56:25.732Z,3.30
2023-09-27T08:58:52.475Z,2.40
2023-09-27T09:01:19.464Z,2.13
2023-09-27T09:03:47.903Z,2.60
2023-09-27T09:06:16.866Z,2.50
2023-09-27T09:08:44.594Z,3.70
2023-09-27T09:11:12.613Z,2.88
2023-09-27T09:14:01.189Z,3.15
2023-09-27T09:16:27.754Z,2.40
2023-09-27T09:18:56.654Z,3.20
2023-09-27T09:21:26.293Z,3.05
2023-09-27T09:23:52.987Z,2.45
2023-09-27T09:26:31.024Z,1.85
2023-09-27T09:29:01.095Z,1.75
2023-09-27T09:31:31.967Z,2.42
2023-09-27T09:34:09.418Z,2.58
2023-09-27T09:36:37.968Z,1.50
2023-09-27T09:39:18.407Z,2.53
2023-09-27T09:41:47.263Z,1.95
2023-09-27T09:44:22.035Z,1.42
2023-09-27T09:46:49.907Z,2.70
2023-09-27T09:49:17.068Z,2.10
2023-09-27T09:51:48.208Z,1.92
2023-09-27T09:54:27.986Z,2.28
2023-09-27T09:57:07.206Z,2.30
2023-09-27T09:59:50.929Z,3.17
2023-09-27T10:02:28.122Z,1.85
2023-09-27T10:04:58.090Z,2.08
2023-09-27T10:07:24.830Z,1.77
2023-09-27T10:09:51.282Z,1.63
2023-09-27T10:12:19.483Z,2.70
2023-09-27T10:14:47.154Z,2.03
2023-09-27T10:17:23.812Z,2.30
2023-09-27T10:20:16.288Z,2.90
2023-09-27T10:22:44.710Z,1.20
2023-09-27T10:25:32.758Z,2.97
2023-09-27T10:28:16.384Z,2.80
2023-09-27T10:30:42.835Z,2.05
2023-09-27T10:33:18.169Z,2.63
2023-09-27T10:36:08.892Z,1.55
2023-09-27T10:38:44.125Z,2.00
2023-09-27T10:41:33.706Z,1.20
2023-09-27T10:44:01.325Z,1.25
2023-09-27T10:46:28.048Z,1.88
2023-09-27T10:49:01.850Z,1.40
2023-09-27T10:51:28.300Z,1.73
2023-09-27T10:53:57.625Z,1.58
2023-09-27T10:56:24.221Z,1.90
2023-09-27T10:58:50.940Z,1.27
2023-09-27T11:01:21.395Z,1.38
2023-09-27T11:03:47.949Z,1.67
2023-09-27T11:06:17.092Z,2.28
2023-09-27T11:08:44.230Z,2.92
2023-09-27T11:11:14.183Z,2.97
2023-09-27T11:13:47.192Z,1.60
2023-09-27T11:16:19.609Z,1.95
2023-09-27T11:18:47.681Z,1.83
2023-09-27T11:21:14.940Z,1.75
2023-09-27T11:24:02.061Z,1.20
2023-09-27T11:26:30.397Z,2.20
2023-09-27T11:29:05.047Z,1.90
2023-09-27T11:31:33.317Z,1.92
2023-09-27T11:34:32.517Z,1.35
2023-09-27T11:37:00.407Z,2.03
2023-09-27T11:39:51.675Z,3.03
2023-09-27T11:42:22.387Z,1.33
2023-09-27T11:45:05.704Z,1.88
2023-09-27T11:47:36.253Z,1.73
2023-09-27T11:52:29.190Z,2.58
2023-09-27T11:54:55.642Z,1.42
2023-09-27T11:57:22.111Z,1.80
2023-09-27T11:59:48.624Z,1.55
2023-09-27T12:02:26.810Z,1.80
2023-09-27T12:04:56.254Z,2.20
2023-09-27T12:07:22.884Z,2.00
2023-09-27T12:09:49.936Z,2.35
2023-09-27T12:12:16.466Z,2.42
2023-09-27T12:14:42.959Z,1.80
2023-09-27T12:17:10.258Z,1.20
2023-09-27T12:19:36.823Z,1.73
2023-09-27T12:22:04.482Z,1.92
2023-09-27T12:24:31.865Z,1.23
2023-09-27T12:26:58.317Z,1.38
2023-09-27T12:29:24.816Z,1.75
2023-09-27T12:31:51.342Z,1.52
2023-09-27T12:34:17.808Z,1.13
2023-09-27T12:36:44.277Z,1.63
2023-09-27T12:39:11.355Z,1.20
2023-09-27T12:41:37.833Z,1.80
2023-09-27T12:44:04.527Z,1.45
2023-09-27T12:46:31.006Z,2.28
2023-09-27T12:48:57.522Z,1.25
2023-09-27T12:51:34.881Z,1.30
2023-09-27T12:54:05.642Z,2.08
2023-09-27T12:56:32.177Z,0.95
2023-09-27T12:58:58.666Z,1.27
2023-09-27T13:01:25.160Z,1.95
2023-09-27T13:03:51.770Z,1.60
2023-09-27T13:06:18.269Z,1.73
2023-09-27T13:08:44.896Z,1.77
2023-09-27T13:11:11.487Z,1.55
2023-09-27T13:13:38.066Z,1.85
2023-09-27T13:16:04.644Z,1.75
2023-09-27T13:18:31.210Z,1.13
2023-09-27T13:20:57.691Z,1.65
2023-09-27T13:23:24.157Z,1.23
2023-09-27T13:25:54.673Z,1.23
2023-09-27T13:30:48.078Z,1.92
2023-09-27T13:33:14.943Z,1.50
2023-09-27T13:35:41.448Z,1.40
2023-09-27T13:38:09.007Z,1.60
2023-09-27T13:40:36.212Z,2.85
2023-09-27T13:43:02.941Z,2.42
2023-09-27T13:45:29.557Z,1.95
2023-09-27T13:47:56.140Z,1.65
2023-09-27T13:50:22.695Z,2.05
2023-09-27T13:52:49.190Z,1.17
2023-09-27T13:55:16.052Z,1.65
2023-09-27T13:57:42.794Z,1.92
2023-09-27T14:00:10.857Z,1.67
2023-09-27T14:02:37.430Z,1.48
2023-09-27T14:05:04.691Z,1.48
2023-09-27T14:07:32.079Z,2.38
2023-09-27T14:09:58.896Z,1.23
2023-09-27T14:12:25.409Z,1.42
2023-09-27T14:14:52.014Z,1.50
2023-09-27T14:17:18.527Z,1.38
2023-09-27T14:19:45.377Z,1.30
2023-09-27T14:22:11.941Z,1.98
2023-09-27T14:24:38.476Z,1.52
2023-09-27T14:27:05.583Z,1.70
2023-09-27T14:29:36.197Z,1.13
2023-09-27T14:32:07.214Z,2.08
2023-09-27T14:37:08.422Z,1.35
2023-09-27T14:39:35.373Z,1.35
2023-09-27T14:42:01.866Z,1.65
2023-09-27T14:44:28.329Z,2.00
2023-09-27T14:46:54.921Z,1.80
2023-09-27T14:49:21.491Z,2.00
2023-09-27T14:51:48.103Z,2.28
2023-09-27T14:54:16.237Z,1.90
2023-09-27T14:56:44.017Z,2.17
2023-09-27T14:59:10.496Z,1.70
2023-09-27T15:01:37.073Z,1.58
2023-09-27T15:04:03.730Z,2.70
2023-09-27T15:06:30.244Z,1.63
2023-09-27T15:08:56.702Z,2.08
2023-09-27T15:11:24.600Z,1.30
2023-09-27T15:13:52.140Z,2.28
2023-09-27T15:16:20.198Z,2.70
2023-09-27T15:18:47.936Z,2.33
2023-09-27T15:21:14.977Z,2.08
2023-09-27T15:23:42.300Z,1.83
2023-09-27T15:26:08.986Z,2.13
2023-09-27T15:28:35.916Z,1.55
2023-09-27T15:31:04.265Z,1.90
2023-09-27T15:33:30.791Z,1.83
2023-09-27T15:35:57.606Z,2.28
2023-09-27T15:38:30.383Z,2.03
2023-09-27T15:40:56.894Z,2.33
2023-09-27T15:43:25.145Z,1.63
2023-09-27T15:46:04.280Z,3.35
2023-09-27T15:48:35.077Z,2.05
2023-09-27T15:53:36.237Z,2.38
2023-09-27T15:56:04.395Z,1.75
2023-09-27T15:58:33.141Z,2.70
2023-09-27T16:01:04.867Z,2.20
2023-09-27T16:03:32.005Z,1.73
2023-09-27T16:05:59.438Z,1.58
2023-09-27T16:08:27.900Z,1.75
2023-09-27T16:10:55.650Z,2.22
2023-09-27T16:13:23.870Z,2.42
2023-09-27T16:15:52.450Z,1.67
2023-09-27T16:18:20.745Z,1.75
2023-09-27T16:20:47.954Z,2.30
2023-09-27T16:23:15.309Z,2.83
2023-09-27T16:25:42.922Z,2.40
2023-09-27T16:28:09.478Z,2.60
2023-09-27T16:30:36.760Z,2.95
2023-09-27T16:33:05.563Z,1.80
2023-09-27T16:35:36.905Z,1.98
2023-09-27T16:38:03.942Z,2.80
2023-09-27T16:40:30.504Z,2.45
2023-09-27T16:42:58.772Z,1.98
2023-09-27T16:45:25.350Z,2.30
2023-09-27T16:47:51.877Z,2.33
2023-09-27T16:50:18.496Z,2.28
2023-09-27T16:52:44.998Z,2.47
2023-09-27T16:55:12.189Z,1.27
2023-09-27T16:57:39.675Z,2.05
2023-09-27T17:00:11.322Z,2.45
2023-09-27T17:02:39.230Z,2.33
2023-09-27T17:05:06.930Z,1.80
2023-09-27T17:07:34.982Z,1.33
2023-09-27T17:10:02.970Z,2.30
2023-09-27T17:12:29.521Z,2.00
2023-09-27T17:14:56.119Z,2.22
2023-09-27T17:17:22.754Z,3.58
2023-09-27T17:19:52.781Z,2.25
2023-09-27T17:22:20.277Z,1.98
2023-09-27T17:24:47.047Z,1.60
2023-09-27T17:27:13.918Z,2.17
2023-09-27T17:29:40.415Z,1.63
2023-09-27T17:32:07.010Z,2.00
2023-09-27T17:34:33.544Z,2.45
2023-09-27T17:37:00.056Z,3.13
2023-09-27T17:39:26.661Z,2.17
2023-09-27T17:41:53.140Z,3.42
2023-09-27T17:44:19.874Z,2.72
2023-09-27T17:46:46.414Z,2.17
2023-09-27T17:49:12.994Z,2.65
2023-09-27T17:51:40.960Z,2.42
2023-09-27T17:54:09.545Z,2.72
2023-09-27T17:56:36.055Z,2.50
2023-09-27T17:59:02.588Z,3.40
2023-09-27T18:01:29.110Z,1.73
2023-09-27T18:03:56.608Z,2.00
2023-09-27T18:06:23.354Z,3.03
2023-09-27T18:08:49.910Z,3.35
2023-09-27T18:11:17.096Z,3.40
2023-09-27T18:13:44.419Z,2.00
2023-09-27T18:16:19.367Z,2.38
2023-09-27T18:18:47.698Z,2.95
2023-09-27T18:21:16.740Z,2.22
2023-09-27T18:23:44.474Z,2.20
2023-09-27T18:26:11.709Z,3.13
2023-09-27T18:28:38.795Z,2.83
2023-09-27T18:31:06.104Z,3.45
2023-09-27T18:33:32.740Z,3.05
2023-09-27T18:35:59.354Z,2.30
2023-09-27T18:38:26.756Z,3.03
2023-09-27T18:40:53.412Z,3.42
2023-09-27T18:43:20.033Z,3.25
2023-09-27T18:45:47.145Z,2.55
2023-09-27T18:48:19.494Z,3.50
2023-09-27T18:50:47.764Z,3.42
2023-09-27T18:53:14.602Z,2.92
2023-09-27T18:55:41.153Z,3.25
2023-09-27T18:58:10.087Z,2.47
2023-09-27T19:00:36.867Z,3.22
2023-09-27T19:03:03.676Z,2.78
2023-09-27T19:05:31.234Z,2.60
2023-09-27T19:07:58.200Z,3.53
2023-09-27T19:10:25.011Z,2.85
2023-09-27T19:12:51.462Z,1.90
2023-09-27T19:15:18.047Z,3.00
2023-09-27T19:17:44.567Z,3.67
2023-09-27T19:20:11.498Z,1.88
2023-09-27T19:22:38.054Z,2.13
2023-09-27T19:25:04.910Z,2.92
2023-09-27T19:27:31.383Z,2.80
2023-09-27T19:29:57.878Z,3.00
2023-09-27T19:32:24.713Z,2.20
2023-09-27T19:34:51.285Z,3.42
2023-09-27T19:37:17.754Z,3.25
2023-09-27T19:39:44.207Z,2.25
2023-09-27T19:42:10.802Z,3.33
2023-09-27T19:44:37.292Z,4.68
2023-09-27T19:47:03.945Z,2.95
2023-09-27T19:49:30.423Z,3.60
2023-09-27T19:51:56.971Z,2.83
2023-09-27T19:54:23.441Z,3.00
2023-09-27T19:56:50.015Z,3.75
2023-09-27T19:59:16.562Z,2.97
2023-09-27T20:01:43.272Z,2.22
2023-09-27T20:04:09.948Z,3.40
2023-09-27T20:06:40.943Z,3.92
2023-09-27T20:09:10.949Z,2.72
2023-09-27T20:11:37.989Z,3.20
2023-09-27T20:14:05.118Z,3.22
2023-09-27T20:16:33.869Z,3.22
2023-09-27T20:19:01.227Z,4.57
2023-09-27T20:21:27.768Z,4.05
2023-09-27T20:23:54.422Z,2.90
2023-09-27T20:26:21.039Z,3.45
2023-09-27T20:28:48.162Z,3.50
2023-09-27T20:31:16.080Z,2.72
2023-09-27T20:33:42.570Z,4.05
2023-09-27T20:36:13.363Z,3.83
2023-09-27T20:41:06.800Z,2.78
2023-09-27T20:43:33.345Z,3.38
2023-09-27T20:45:59.834Z,2.50
2023-09-27T20:48:26.612Z,3.72
2023-09-27T20:50:58.052Z,3.40
2023-09-27T20:53:25.444Z,3.50
2023-09-27T20:55:53.983Z,3.90
2023-09-27T20:58:20.946Z,4.03
2023-09-27T21:00:47.483Z,3.00
2023-09-27T21:03:14.089Z,2.22
2023-09-27T21:05:40.748Z,3.20
2023-09-27T21:08:07.270Z,2.75
2023-09-27T21:10:34.112Z,2.67
2023-09-27T21:13:00.608Z,3.90
2023-09-27T21:15:27.340Z,3.28
2023-09-27T21:17:53.801Z,2.55
2023-09-27T21:20:20.280Z,3.05
2023-09-27T21:22:46.740Z,3.67
2023-09-27T21:25:13.249Z,2.85
2023-09-27T21:27:39.984Z,2.70
2023-09-27T21:30:07.374Z,3.20
2023-09-27T21:32:33.959Z,3.25
2023-09-27T21:35:00.662Z,2.83
2023-09-27T21:37:27.628Z,2.80
2023-09-27T21:39:54.789Z,3.67
2023-09-27T21:42:21.614Z,2.72
2023-09-27T21:44:48.145Z,3.13
2023-09-27T21:47:14.652Z,2.67
2023-09-27T21:49:41.120Z,2.13
2023-09-27T21:52:07.554Z,3.05
2023-09-27T21:54:34.039Z,4.30
2023-09-27T21:57:00.636Z,3.35
2023-09-27T21:59:27.090Z,3.50
2023-09-27T22:01:54.515Z,3.40
2023-09-27T22:04:21.992Z,3.15
2023-09-27T22:06:48.642Z,3.38
2023-09-27T22:09:15.152Z,3.58
2023-09-27T22:11:41.973Z,5.07
2023-09-27T22:14:08.505Z,2.97
2023-09-27T22:16:35.127Z,2.78
2023-09-27T22:19:02.012Z,2.28
2023-09-27T22:21:30.004Z,3.67
2023-09-27T22:24:09.274Z,3.08
2023-09-27T22:26:35.709Z,3.30
2023-09-27T22:29:02.271Z,3.67
2023-09-27T22:31:32.195Z,2.75
2023-09-27T22:34:05.782Z,2.42
2023-09-27T22:36:32.754Z,2.60
2023-09-27T22:39:09.502Z,3.40
2023-09-27T22:41:40.738Z,3.03
2023-09-27T22:44:19.758Z,2.60
2023-09-27T22:46:51.083Z,2.20
2023-09-27T22:49:18.669Z,3.28
2023-09-27T22:51:47.078Z,2.00
2023-09-27T22:54:21.107Z,2.45
2023-09-27T22:56:49.713Z,3.17
2023-09-27T22:59:16.928Z,2.58
2023-09-27T23:01:45.000Z,3.17
2023-09-27T23:04:16.299Z,2.40
2023-09-27T23:06:47.979Z,3.28
2023-09-27T23:09:25.308Z,3.00
2023-09-27T23:12:13.445Z,3.63
2023-09-27T23:14:58.487Z,2.95
2023-09-27T23:17:29.385Z,3.60
2023-09-27T23:22:22.305Z,2.28
2023-09-27T23:25:06.666Z,3.20
2023-09-27T23:27:34.071Z,2.70
2023-09-27T23:30:00.640Z,3.22
2023-09-27T23:32:31.321Z,3.13
2023-09-27T23:37:34.399Z,3.00
2023-09-27T23:40:02.186Z,2.53
2023-09-27T23:42:35.637Z,2.42
2023-09-27T23:45:11.288Z,2.75
2023-09-27T23:47:39.400Z,3.58
2023-09-27T23:50:12.013Z,2.38
2023-09-27T23:52:46.441Z,2.40
2023-09-27T23:55:18.001Z,2.85
2023-09-27T23:57:48.252Z,3.72
